createdAt,value
2022-08-16T00:01:44.263Z,56.70
2022-08-16T00:04:35.016Z,56.65
2022-08-16T00:07:26.329Z,56.64
2022-08-16T00:10:21.215Z,56.52
2022-08-16T00:13:13.115Z,56.42
2022-08-16T00:17:06.715Z,56.53
2022-08-16T00:19:22.560Z,56.41
2022-08-16T00:22:15.531Z,56.52
2022-08-16T00:25:10.106Z,56.49
2022-08-16T00:28:01.708Z,56.56
2022-08-16T00:30:52.182Z,56.61
2022-08-16T00:33:50.113Z,56.60
2022-08-16T00:36:40.206Z,56.55
2022-08-16T00:39:39.940Z,56.54
2022-08-16T00:42:32.643Z,56.58
2022-08-16T00:45:35.593Z,56.49
2022-08-16T00:48:30.298Z,56.50
2022-08-16T00:51:25.170Z,56.44
2022-08-16T00:54:23.382Z,56.27
2022-08-16T00:57:16.224Z,56.31
2022-08-16T01:00:08.987Z,56.29
2022-08-16T01:03:11.657Z,56.26
2022-08-16T01:06:40.650Z,56.26
2022-08-16T01:09:13.126Z,56.21
2022-08-16T01:12:08.445Z,56.19
2022-08-16T01:15:01.313Z,56.31
2022-08-16T01:17:56.179Z,56.25
2022-08-16T01:20:53.378Z,56.32
2022-08-16T01:24:02.488Z,56.23
2022-08-16T01:26:57.702Z,56.20
2022-08-16T01:30:00.397Z,56.21
2022-08-16T01:32:59.599Z,56.17
2022-08-16T01:35:58.697Z,56.15
2022-08-16T01:38:57.214Z,56.18
2022-08-16T01:41:49.913Z,56.15
2022-08-16T01:44:41.132Z,56.09
2022-08-16T01:47:35.397Z,56.12
2022-08-16T01:50:42.605Z,56.16
2022-08-16T01:53:40.729Z,56.14
2022-08-16T01:56:41.449Z,56.24
2022-08-16T01:59:35.390Z,56.16
2022-08-16T02:02:28.805Z,56.16
2022-08-16T02:05:18.947Z,56.24
2022-08-16T02:08:32.969Z,56.24
2022-08-16T02:11:24.423Z,56.32
2022-08-16T02:14:18.409Z,56.35
2022-08-16T02:17:13.346Z,56.40
2022-08-16T02:20:11.381Z,56.31
2022-08-16T02:23:05.617Z,56.36
2022-08-16T02:25:56.851Z,56.28
2022-08-16T02:28:52.794Z,56.26
2022-08-16T02:32:03.055Z,56.16
2022-08-16T02:34:56.456Z,56.17
2022-08-16T02:37:52.434Z,56.26
2022-08-16T02:40:47.803Z,56.15
2022-08-16T02:43:40.244Z,56.19
2022-08-16T02:46:33.647Z,56.25
2022-08-16T02:49:32.261Z,56.33
2022-08-16T02:52:36.492Z,56.31
2022-08-16T02:55:40.876Z,56.16
2022-08-16T02:58:32.794Z,56.15
2022-08-16T03:01:33.741Z,56.16
2022-08-16T03:04:50.324Z,56.14
2022-08-16T03:07:50.491Z,56.24
2022-08-16T03:10:43.009Z,56.15
2022-08-16T03:13:40.294Z,56.18
2022-08-16T03:16:38.222Z,56.39
2022-08-16T03:19:47.175Z,56.49
2022-08-16T03:22:45.377Z,56.90
2022-08-16T03:25:43.185Z,56.90
2022-08-16T03:28:40.430Z,56.89
2022-08-16T03:31:34.578Z,56.90
2022-08-16T03:34:33.329Z,56.79
2022-08-16T03:37:24.858Z,56.82
2022-08-16T03:40:23.296Z,56.82
2022-08-16T03:43:24.550Z,56.77
2022-08-16T03:46:47.826Z,56.73
2022-08-16T03:49:44.433Z,56.65
2022-08-16T03:52:35.643Z,56.40
2022-08-16T03:55:31.355Z,56.19
2022-08-16T03:58:37.296Z,56.17
2022-08-16T04:01:29.950Z,56.14
2022-08-16T04:04:25.067Z,56.01
2022-08-16T04:07:25.780Z,55.93
2022-08-16T04:10:36.872Z,55.86
2022-08-16T04:14:01.222Z,55.86
2022-08-16T04:16:39.718Z,55.73
2022-08-16T04:19:51.704Z,55.72
2022-08-16T04:22:48.833Z,55.57
2022-08-16T04:25:40.988Z,55.50
2022-08-16T04:28:55.900Z,55.45
2022-08-16T04:31:43.696Z,55.33
2022-08-16T04:34:36.941Z,55.35
2022-08-16T04:37:29.574Z,55.30
2022-08-16T04:40:29.875Z,55.12
2022-08-16T04:43:21.081Z,55.04
2022-08-16T04:47:00.328Z,55.04
2022-08-16T04:49:38.528Z,55.05
2022-08-16T04:52:37.903Z,54.97
2022-08-16T04:55:37.819Z,55.11
2022-08-16T04:58:38.335Z,55.11
2022-08-16T05:01:55.971Z,55.24
2022-08-16T05:04:46.928Z,55.13
2022-08-16T05:07:38.030Z,55.07
2022-08-16T05:10:47.949Z,55.16
2022-08-16T05:13:42.599Z,55.13
2022-08-16T05:16:35.899Z,55.06
2022-08-16T05:19:36.096Z,55.06
2022-08-16T05:22:38.576Z,55.09
2022-08-16T05:25:40.954Z,55.06
2022-08-16T05:28:40.036Z,54.71
2022-08-16T05:31:32.427Z,54.35
2022-08-16T05:34:23.485Z,53.91
2022-08-16T05:37:16.141Z,53.84
2022-08-16T05:40:10.876Z,53.60
2022-08-16T05:43:04.340Z,53.55
2022-08-16T05:45:55.867Z,53.46
2022-08-16T05:48:55.042Z,53.47
2022-08-16T05:51:51.405Z,53.44
2022-08-16T05:54:46.636Z,53.38
2022-08-16T05:57:37.807Z,53.36
2022-08-16T06:00:33.215Z,53.14
2022-08-16T06:03:24.162Z,53.02
2022-08-16T06:06:28.067Z,52.75
2022-08-16T06:09:20.561Z,52.74
2022-08-16T06:12:12.723Z,52.83
2022-08-16T06:15:20.691Z,52.86
2022-08-16T06:18:10.747Z,53.06
2022-08-16T06:21:02.857Z,53.05
2022-08-16T06:23:54.316Z,53.14
2022-08-16T06:26:57.715Z,53.27
2022-08-16T06:29:50.719Z,53.22
2022-08-16T06:32:43.771Z,53.30
2022-08-16T06:35:41.495Z,53.26
2022-08-16T06:38:34.493Z,53.39
2022-08-16T06:41:39.844Z,53.23
2022-08-16T06:44:39.239Z,53.34
2022-08-16T06:47:53.790Z,53.38
2022-08-16T06:50:44.957Z,53.27
2022-08-16T06:53:38.522Z,53.51
2022-08-16T06:56:29.422Z,53.72
2022-08-16T06:59:29.362Z,53.83
2022-08-16T07:02:33.111Z,53.94
2022-08-16T07:05:27.044Z,54.18
2022-08-16T07:08:35.175Z,54.56
2022-08-16T07:11:45.365Z,54.57
2022-08-16T07:14:39.566Z,54.60
2022-08-16T07:17:32.878Z,54.73
2022-08-16T07:20:35.386Z,54.75
2022-08-16T07:23:38.847Z,54.91
2022-08-16T07:26:30.930Z,55.09
2022-08-16T07:29:21.688Z,55.27
2022-08-16T07:32:12.420Z,55.36
2022-08-16T07:35:06.329Z,55.39
2022-08-16T07:37:59.578Z,55.41
2022-08-16T07:41:11.021Z,55.40
2022-08-16T07:44:16.133Z,55.44
2022-08-16T07:47:07.966Z,55.39
2022-08-16T07:50:07.693Z,55.79
2022-08-16T07:53:00.218Z,55.68
2022-08-16T07:55:52.977Z,55.63
2022-08-16T07:58:49.027Z,55.64
2022-08-16T08:01:45.846Z,55.71
2022-08-16T08:04:36.711Z,55.66
2022-08-16T08:07:28.647Z,55.55
2022-08-16T08:10:29.589Z,55.58
2022-08-16T08:13:41.767Z,55.86
2022-08-16T08:16:32.318Z,55.82
2022-08-16T08:19:24.630Z,55.77
2022-08-16T08:22:19.456Z,55.93
2022-08-16T08:25:16.285Z,55.88
2022-08-16T08:28:10.944Z,55.86
2022-08-16T08:31:04.355Z,55.63
2022-08-16T08:34:00.607Z,55.76
2022-08-16T08:36:56.529Z,55.53
2022-08-16T08:40:08.685Z,55.62
2022-08-16T08:43:11.863Z,55.65
2022-08-16T08:46:17.786Z,55.61
2022-08-16T08:49:11.254Z,55.63
2022-08-16T08:52:08.015Z,55.75
2022-08-16T08:55:05.035Z,55.48
2022-08-16T08:58:00.732Z,55.50
2022-08-16T09:01:05.753Z,55.65
2022-08-16T09:04:03.703Z,55.55
2022-08-16T09:06:55.296Z,55.43
2022-08-16T09:09:47.802Z,55.61
2022-08-16T09:12:39.039Z,55.33
2022-08-16T09:15:33.588Z,55.30
2022-08-16T09:18:27.180Z,55.26
2022-08-16T09:21:31.363Z,55.15
2022-08-16T09:24:46.727Z,55.07
2022-08-16T09:27:56.498Z,55.08
2022-08-16T09:30:44.169Z,55.06
2022-08-16T09:33:37.337Z,54.97
2022-08-16T09:36:31.807Z,54.93
2022-08-16T09:39:23.730Z,55.10
2022-08-16T09:42:15.731Z,54.84
2022-08-16T09:45:16.572Z,54.92
2022-08-16T09:48:09.249Z,54.88
2022-08-16T09:50:59.758Z,54.92
2022-08-16T09:53:53.929Z,54.64
2022-08-16T09:56:53.455Z,54.63
2022-08-16T09:59:44.658Z,54.62
2022-08-16T10:02:44.113Z,54.40
2022-08-16T10:05:37.372Z,54.32
2022-08-16T10:08:27.751Z,54.20
2022-08-16T10:11:49.840Z,53.99
2022-08-16T10:14:45.881Z,54.05
2022-08-16T10:17:36.416Z,53.90
2022-08-16T10:20:27.922Z,53.64
2022-08-16T10:23:18.395Z,53.65
2022-08-16T10:27:20.521Z,53.65
2022-08-16T10:29:21.077Z,53.46
2022-08-16T10:32:11.279Z,53.30
2022-08-16T10:35:03.327Z,53.11
2022-08-16T10:37:53.826Z,52.84
2022-08-16T10:40:45.679Z,52.92
2022-08-16T10:43:36.694Z,52.80
2022-08-16T10:46:39.246Z,52.82
2022-08-16T10:49:32.926Z,52.83
2022-08-16T10:52:24.754Z,52.73
2022-08-16T10:58:34.684Z,52.64
2022-08-16T11:01:39.808Z,52.75
2022-08-16T11:07:52.059Z,52.68
2022-08-16T11:11:06.484Z,52.56
2022-08-16T11:14:06.169Z,52.55
2022-08-16T11:17:10.497Z,52.50
2022-08-16T11:20:41.412Z,52.49
2022-08-16T11:23:12.105Z,52.54
2022-08-16T11:26:10.408Z,52.55
2022-08-16T11:29:14.246Z,52.39
2022-08-16T11:32:06.106Z,52.34
2022-08-16T11:35:13.446Z,52.31
2022-08-16T11:38:47.285Z,52.20
2022-08-16T11:41:17.682Z,52.12
2022-08-16T11:44:09.449Z,51.89
2022-08-16T11:47:04.142Z,52.28
2022-08-16T11:49:54.872Z,52.23
2022-08-16T11:52:46.734Z,52.36
2022-08-16T11:55:40.358Z,52.43
2022-08-16T11:58:35.341Z,52.72
2022-08-16T12:01:29.642Z,53.01
2022-08-16T12:04:35.171Z,53.32
2022-08-16T12:07:25.678Z,53.42
2022-08-16T12:10:18.404Z,53.58
2022-08-16T12:13:13.988Z,53.80
2022-08-16T12:16:04.514Z,53.81
2022-08-16T12:18:54.541Z,54.00
2022-08-16T12:21:58.055Z,54.44
2022-08-16T12:24:51.240Z,54.46
2022-08-16T12:27:49.666Z,54.60
2022-08-16T12:30:42.857Z,54.92
2022-08-16T12:33:42.736Z,54.89
2022-08-16T12:36:35.266Z,54.86
2022-08-16T12:39:29.155Z,54.90
2022-08-16T12:42:20.842Z,54.90
2022-08-16T12:45:15.449Z,54.77
2022-08-16T12:48:36.049Z,54.67
2022-08-16T12:51:32.883Z,54.60
2022-08-16T12:54:39.787Z,54.65
2022-08-16T12:57:36.540Z,54.65
2022-08-16T13:00:33.622Z,54.53
2022-08-16T13:03:23.943Z,54.72
2022-08-16T13:06:20.203Z,54.97
2022-08-16T13:09:26.732Z,54.94
2022-08-16T13:12:25.063Z,55.04
2022-08-16T13:15:18.395Z,55.22
2022-08-16T13:18:23.861Z,55.13
2022-08-16T13:21:17.925Z,55.23
2022-08-16T13:24:08.783Z,55.04
2022-08-16T13:26:59.544Z,55.10
2022-08-16T13:29:57.576Z,55.00
2022-08-16T13:32:52.102Z,54.77
2022-08-16T13:35:44.924Z,55.04
2022-08-16T13:38:37.880Z,55.06
2022-08-16T13:41:30.341Z,55.01
2022-08-16T13:44:21.565Z,54.92
2022-08-16T13:47:11.528Z,55.12
2022-08-16T13:50:03.508Z,55.23
2022-08-16T13:52:53.591Z,55.13
2022-08-16T13:55:47.522Z,55.13
2022-08-16T13:58:54.845Z,54.93
2022-08-16T14:01:55.550Z,55.30
2022-08-16T14:04:47.426Z,55.33
2022-08-16T14:07:55.440Z,55.31
2022-08-16T14:10:45.838Z,55.43
2022-08-16T14:13:36.066Z,55.39
2022-08-16T14:16:33.686Z,55.27
2022-08-16T14:19:26.405Z,55.19
2022-08-16T14:22:31.154Z,55.15
2022-08-16T14:25:28.272Z,55.08
2022-08-16T14:28:19.036Z,54.99
2022-08-16T14:31:13.840Z,55.16
2022-08-16T14:34:06.494Z,55.45
2022-08-16T14:37:01.182Z,55.41
2022-08-16T14:39:52.443Z,55.65
2022-08-16T14:42:44.189Z,55.50
2022-08-16T14:45:36.913Z,55.62
2022-08-16T14:48:26.863Z,55.52
2022-08-16T14:51:18.983Z,55.65
2022-08-16T14:54:15.180Z,55.53
2022-08-16T14:57:06.023Z,55.68
2022-08-16T15:00:00.751Z,55.64
2022-08-16T15:02:58.091Z,55.56
2022-08-16T15:05:48.276Z,55.52
2022-08-16T15:08:40.338Z,55.51
2022-08-16T15:11:31.036Z,55.24
2022-08-16T15:14:23.130Z,55.35
2022-08-16T15:17:15.064Z,55.39
2022-08-16T15:20:11.089Z,55.57
2022-08-16T15:23:06.014Z,55.59
2022-08-16T15:26:03.060Z,55.52
2022-08-16T15:28:54.238Z,55.70
2022-08-16T15:31:48.366Z,55.55
2022-08-16T15:34:44.719Z,55.68
2022-08-16T15:37:42.624Z,55.41
2022-08-16T15:40:35.315Z,55.49
2022-08-16T15:43:27.153Z,55.74
2022-08-16T15:46:35.705Z,55.90
2022-08-16T15:49:38.912Z,55.84
2022-08-16T15:52:38.993Z,55.76
2022-08-16T15:55:35.141Z,55.84
2022-08-16T15:58:34.866Z,56.01
2022-08-16T16:01:26.112Z,55.99
2022-08-16T16:04:22.860Z,55.96
2022-08-16T16:07:13.325Z,56.03
2022-08-16T16:10:07.818Z,56.30
2022-08-16T16:12:58.624Z,56.50
2022-08-16T16:15:51.992Z,56.75
2022-08-16T16:18:48.715Z,56.81
2022-08-16T16:21:39.369Z,56.71
2022-08-16T16:24:30.777Z,56.87
2022-08-16T16:27:22.769Z,56.72
2022-08-16T16:30:33.037Z,56.95
2022-08-16T16:33:28.774Z,56.97
2022-08-16T16:36:24.346Z,57.09
2022-08-16T16:39:18.149Z,57.07
2022-08-16T16:42:08.704Z,57.14
2022-08-16T16:45:19.191Z,57.24
2022-08-16T16:48:12.024Z,57.38
2022-08-16T16:51:09.154Z,57.45
2022-08-16T16:54:03.775Z,57.49
2022-08-16T16:56:54.423Z,57.49
2022-08-16T16:59:44.502Z,57.72
2022-08-16T17:02:41.768Z,57.99
2022-08-16T17:05:40.694Z,58.20
2022-08-16T17:08:30.553Z,58.21
2022-08-16T17:11:20.467Z,58.35
2022-08-16T17:14:32.120Z,58.39
2022-08-16T17:17:21.743Z,58.61
2022-08-16T17:20:14.029Z,58.38
2022-08-16T17:23:05.088Z,58.58
2022-08-16T17:25:55.493Z,58.63
2022-08-16T17:28:59.934Z,58.77
2022-08-16T17:31:53.019Z,58.75
2022-08-16T17:34:45.492Z,58.68
2022-08-16T17:37:48.756Z,58.73
2022-08-16T17:40:58.123Z,58.72
2022-08-16T17:43:49.652Z,58.89
2022-08-16T17:46:50.683Z,58.80
2022-08-16T17:49:41.854Z,58.94
2022-08-16T17:52:32.212Z,58.80
2022-08-16T17:55:27.682Z,58.94
2022-08-16T17:58:22.657Z,58.85
2022-08-16T18:01:14.393Z,58.92
2022-08-16T18:04:08.275Z,58.89
2022-08-16T18:07:00.169Z,58.98
2022-08-16T18:09:52.304Z,59.21
2022-08-16T18:12:50.733Z,59.52
2022-08-16T18:15:46.302Z,59.64
2022-08-16T18:18:36.255Z,59.76
2022-08-16T18:21:43.571Z,59.65
2022-08-16T18:24:35.098Z,59.62
2022-08-16T18:27:27.254Z,59.77
2022-08-16T18:30:17.735Z,59.67
2022-08-16T18:33:07.956Z,59.69
2022-08-16T18:35:58.465Z,59.78
2022-08-16T18:38:48.189Z,59.89
2022-08-16T18:41:38.563Z,59.97
2022-08-16T18:44:33.321Z,59.91
2022-08-16T18:47:24.647Z,60.18
2022-08-16T18:50:14.348Z,60.37
2022-08-16T18:53:06.152Z,59.99
2022-08-16T18:55:59.000Z,60.22
2022-08-16T18:58:49.012Z,60.15
2022-08-16T19:01:39.215Z,60.09
2022-08-16T19:04:56.152Z,59.96
2022-08-16T19:07:41.993Z,60.16
2022-08-16T19:10:33.039Z,60.14
2022-08-16T19:13:25.524Z,60.08
2022-08-16T19:16:16.486Z,60.06
2022-08-16T19:19:11.789Z,59.88
2022-08-16T19:22:01.482Z,60.15
2022-08-16T19:24:51.102Z,60.04
2022-08-16T19:27:42.706Z,60.22
2022-08-16T19:30:32.836Z,60.30
2022-08-16T19:33:23.121Z,60.28
2022-08-16T19:36:31.038Z,60.26
2022-08-16T19:39:22.362Z,60.32
2022-08-16T19:42:17.922Z,60.39
2022-08-16T19:45:09.587Z,60.33
2022-08-16T19:48:03.698Z,60.36
2022-08-16T19:50:53.830Z,60.44
2022-08-16T19:53:44.203Z,60.55
2022-08-16T19:56:34.148Z,60.39
2022-08-16T19:59:40.479Z,60.43
2022-08-16T20:02:36.430Z,60.42
2022-08-16T20:05:29.979Z,60.38
2022-08-16T20:08:22.277Z,60.36
2022-08-16T20:11:12.381Z,60.45
2022-08-16T20:14:02.343Z,60.38
2022-08-16T20:16:52.714Z,60.56
2022-08-16T20:19:44.070Z,60.74
2022-08-16T20:22:52.977Z,60.84
2022-08-16T20:25:49.631Z,60.72
2022-08-16T20:28:52.605Z,60.76
2022-08-16T20:31:44.543Z,60.91
2022-08-16T20:34:35.086Z,60.92
2022-08-16T20:37:25.353Z,61.41
2022-08-16T20:40:34.419Z,61.16
2022-08-16T20:43:25.847Z,61.17
2022-08-16T20:46:16.872Z,60.86
2022-08-16T20:49:08.965Z,61.05
2022-08-16T20:52:00.498Z,61.23
2022-08-16T20:54:50.358Z,61.22
2022-08-16T20:57:40.797Z,61.30
2022-08-16T21:00:32.305Z,61.47
2022-08-16T21:03:22.671Z,61.55
2022-08-16T21:06:12.789Z,61.79
2022-08-16T21:09:04.923Z,61.92
2022-08-16T21:11:56.054Z,62.14
2022-08-16T21:14:48.365Z,62.28
2022-08-16T21:17:39.137Z,62.49
2022-08-16T21:20:31.145Z,62.49
2022-08-16T21:23:21.273Z,62.56
2022-08-16T21:26:11.882Z,62.71
2022-08-16T21:29:02.693Z,62.60
2022-08-16T21:31:57.099Z,62.47
2022-08-16T21:34:50.032Z,62.47
2022-08-16T21:37:40.470Z,62.47
2022-08-16T21:40:32.478Z,62.25
2022-08-16T21:43:24.541Z,62.31
2022-08-16T21:46:15.032Z,61.87
2022-08-16T21:49:06.046Z,61.70
2022-08-16T21:51:57.109Z,61.72
2022-08-16T21:54:47.114Z,61.51
2022-08-16T21:57:37.383Z,61.40
2022-08-16T22:00:28.326Z,61.66
2022-08-16T22:03:19.578Z,61.68
2022-08-16T22:06:13.041Z,61.59
2022-08-16T22:09:05.067Z,61.76
2022-08-16T22:11:55.962Z,61.79
2022-08-16T22:14:46.140Z,61.76
2022-08-16T22:17:35.797Z,61.83
2022-08-16T22:20:29.416Z,61.68
2022-08-16T22:23:23.023Z,61.57
2022-08-16T22:26:14.807Z,61.42
2022-08-16T22:29:06.964Z,61.33
2022-08-16T22:31:56.969Z,61.30
2022-08-16T22:34:50.121Z,61.35
2022-08-16T22:37:41.907Z,61.35
2022-08-16T22:40:53.445Z,61.27
2022-08-16T22:43:46.046Z,61.20
2022-08-16T22:46:37.875Z,61.00
2022-08-16T22:49:29.047Z,60.98
2022-08-16T22:52:48.896Z,60.97
2022-08-16T22:55:30.093Z,60.75
2022-08-16T22:58:20.535Z,60.61
2022-08-16T23:01:27.299Z,60.63
2022-08-16T23:04:18.092Z,60.37
2022-08-16T23:07:08.619Z,60.28
2022-08-16T23:10:01.563Z,60.46
2022-08-16T23:12:53.509Z,60.30
2022-08-16T23:15:46.720Z,60.15
2022-08-16T23:18:42.346Z,59.99
2022-08-16T23:21:33.096Z,59.72
2022-08-16T23:24:27.645Z,59.60
2022-08-16T23:27:17.682Z,59.55
2022-08-16T23:30:09.205Z,59.52
2022-08-16T23:33:01.234Z,59.16
2022-08-16T23:35:53.491Z,58.79
2022-08-16T23:38:44.407Z,58.89
2022-08-16T23:41:35.352Z,58.62
2022-08-16T23:44:42.347Z,58.50
2022-08-16T23:47:36.088Z,58.96
2022-08-16T23:50:28.222Z,58.96
2022-08-16T23:53:20.918Z,59.07
2022-08-16T23:56:15.535Z,59.08
2022-08-16T23:59:05.852Z,59.16
